sensor_id;sensor_type;location;lat;lon;timestamp;temperature;humidity
15288;DHT22;7745;48.708;9.026;2023-06-24T00:01:04;16.30;99.90
15288;DHT22;7745;48.708;9.026;2023-06-24T00:03:31;16.10;99.90
15288;DHT22;7745;48.708;9.026;2023-06-24T00:06:02;16.10;99.90
15288;DHT22;7745;48.708;9.026;2023-06-24T00:08:29;16.10;99.90
15288;DHT22;7745;48.708;9.026;2023-06-24T00:11:00;16.00;99.90
15288;DHT22;7745;48.708;9.026;2023-06-24T00:13:29;16.00;99.90
15288;DHT22;7745;48.708;9.026;2023-06-24T00:15:55;15.90;99.90
15288;DHT22;7745;48.708;9.026;2023-06-24T00:18:22;15.90;99.90
15288;DHT22;7745;48.708;9.026;2023-06-24T00:20:54;16.00;99.90
15288;DHT22;7745;48.708;9.026;2023-06-24T00:23:22;15.90;99.90
15288;DHT22;7745;48.708;9.026;2023-06-24T00:25:50;15.70;99.90
15288;DHT22;7745;48.708;9.026;2023-06-24T00:28:17;16.00;99.90
15288;DHT22;7745;48.708;9.026;2023-06-24T00:30:45;15.70;99.90
15288;DHT22;7745;48.708;9.026;2023-06-24T00:33:11;15.60;99.90
15288;DHT22;7745;48.708;9.026;2023-06-24T00:35:39;15.60;99.90
15288;DHT22;7745;48.708;9.026;2023-06-24T00:38:06;15.60;99.90
15288;DHT22;7745;48.708;9.026;2023-06-24T00:40:32;15.50;99.90
15288;DHT22;7745;48.708;9.026;2023-06-24T00:43:00;15.50;99.90
15288;DHT22;7745;48.708;9.026;2023-06-24T00:45:28;15.70;99.90
15288;DHT22;7745;48.708;9.026;2023-06-24T00:47:57;15.40;99.90
15288;DHT22;7745;48.708;9.026;2023-06-24T00:50:24;15.40;99.90
15288;DHT22;7745;48.708;9.026;2023-06-24T00:52:51;15.40;99.90
15288;DHT22;7745;48.708;9.026;2023-06-24T00:55:18;15.30;99.90
15288;DHT22;7745;48.708;9.026;2023-06-24T00:57:47;15.30;99.90
15288;DHT22;7745;48.708;9.026;2023-06-24T01:00:17;15.40;99.90
15288;DHT22;7745;48.708;9.026;2023-06-24T01:02:46;15.20;99.90
15288;DHT22;7745;48.708;9.026;2023-06-24T01:05:15;15.20;99.90
15288;DHT22;7745;48.708;9.026;2023-06-24T01:07:42;15.20;99.90
15288;DHT22;7745;48.708;9.026;2023-06-24T01:10:10;15.20;99.90
15288;DHT22;7745;48.708;9.026;2023-06-24T01:12:39;15.10;99.90
15288;DHT22;7745;48.708;9.026;2023-06-24T01:15:10;15.10;99.90
15288;DHT22;7745;48.708;9.026;2023-06-24T01:17:41;15.10;99.90
15288;DHT22;7745;48.708;9.026;2023-06-24T01:20:13;15.00;99.90
15288;DHT22;7745;48.708;9.026;2023-06-24T01:25:55;15.00;99.90
15288;DHT22;7745;48.708;9.026;2023-06-24T01:28:41;14.90;99.90
15288;DHT22;7745;48.708;9.026;2023-06-24T01:31:33;14.90;99.90
15288;DHT22;7745;48.708;9.026;2023-06-24T01:34:07;14.80;99.90
15288;DHT22;7745;48.708;9.026;2023-06-24T01:36:38;14.70;99.90
15288;DHT22;7745;48.708;9.026;2023-06-24T01:39:08;14.60;99.90
15288;DHT22;7745;48.708;9.026;2023-06-24T01:41:40;14.60;99.90
15288;DHT22;7745;48.708;9.026;2023-06-24T01:44:08;14.60;99.90
15288;DHT22;7745;48.708;9.026;2023-06-24T01:46:38;14.60;99.90
15288;DHT22;7745;48.708;9.026;2023-06-24T01:49:08;14.60;99.90
15288;DHT22;7745;48.708;9.026;2023-06-24T01:51:38;14.60;99.90
15288;DHT22;7745;48.708;9.026;2023-06-24T01:54:11;14.60;99.90
15288;DHT22;7745;48.708;9.026;2023-06-24T01:56:42;14.60;99.90
15288;DHT22;7745;48.708;9.026;2023-06-24T01:59:10;14.50;99.90
15288;DHT22;7745;48.708;9.026;2023-06-24T02:01:39;14.50;99.90
15288;DHT22;7745;48.708;9.026;2023-06-24T02:04:08;14.50;99.90
15288;DHT22;7745;48.708;9.026;2023-06-24T02:06:37;14.50;99.90
15288;DHT22;7745;48.708;9.026;2023-06-24T02:09:05;14.50;99.90
15288;DHT22;7745;48.708;9.026;2023-06-24T02:11:33;14.50;99.90
15288;DHT22;7745;48.708;9.026;2023-06-24T02:14:02;14.40;99.90
15288;DHT22;7745;48.708;9.026;2023-06-24T02:16:30;14.40;99.90
15288;DHT22;7745;48.708;9.026;2023-06-24T02:19:00;14.40;99.90
15288;DHT22;7745;48.708;9.026;2023-06-24T02:21:29;14.40;99.90
15288;DHT22;7745;48.708;9.026;2023-06-24T02:23:57;14.30;99.90
15288;DHT22;7745;48.708;9.026;2023-06-24T02:26:25;14.20;99.90
15288;DHT22;7745;48.708;9.026;2023-06-24T02:28:53;14.10;99.90
15288;DHT22;7745;48.708;9.026;2023-06-24T02:31:20;14.10;99.90
15288;DHT22;7745;48.708;9.026;2023-06-24T02:33:46;14.20;99.90
15288;DHT22;7745;48.708;9.026;2023-06-24T02:36:15;14.20;99.90
15288;DHT22;7745;48.708;9.026;2023-06-24T02:38:41;14.20;99.90
15288;DHT22;7745;48.708;9.026;2023-06-24T02:41:08;14.20;99.90
15288;DHT22;7745;48.708;9.026;2023-06-24T02:43:35;14.20;99.90
15288;DHT22;7745;48.708;9.026;2023-06-24T02:46:03;14.10;99.90
15288;DHT22;7745;48.708;9.026;2023-06-24T02:48:32;14.10;99.90
15288;DHT22;7745;48.708;9.026;2023-06-24T02:51:02;14.10;99.90
15288;DHT22;7745;48.708;9.026;2023-06-24T02:53:31;14.10;99.90
15288;DHT22;7745;48.708;9.026;2023-06-24T02:55:59;14.00;99.90
15288;DHT22;7745;48.708;9.026;2023-06-24T02:58:26;14.00;99.90
15288;DHT22;7745;48.708;9.026;2023-06-24T03:00:57;14.00;99.90
15288;DHT22;7745;48.708;9.026;2023-06-24T03:03:24;14.00;99.90
15288;DHT22;7745;48.708;9.026;2023-06-24T03:05:53;14.00;99.90
15288;DHT22;7745;48.708;9.026;2023-06-24T03:08:20;14.00;99.90
15288;DHT22;7745;48.708;9.026;2023-06-24T03:10:48;13.90;99.90
15288;DHT22;7745;48.708;9.026;2023-06-24T03:13:15;14.00;99.90
15288;DHT22;7745;48.708;9.026;2023-06-24T03:15:42;13.90;99.90
15288;DHT22;7745;48.708;9.026;2023-06-24T03:18:09;14.00;99.90
15288;DHT22;7745;48.708;9.026;2023-06-24T03:20:35;13.90;99.90
15288;DHT22;7745;48.708;9.026;2023-06-24T03:23:05;13.90;99.90
15288;DHT22;7745;48.708;9.026;2023-06-24T03:25:31;13.90;99.90
15288;DHT22;7745;48.708;9.026;2023-06-24T03:28:00;13.90;99.90
15288;DHT22;7745;48.708;9.026;2023-06-24T03:30:29;13.90;99.90
15288;DHT22;7745;48.708;9.026;2023-06-24T03:32:56;13.90;99.90
15288;DHT22;7745;48.708;9.026;2023-06-24T03:35:23;13.90;99.90
15288;DHT22;7745;48.708;9.026;2023-06-24T03:37:50;13.90;99.90
15288;DHT22;7745;48.708;9.026;2023-06-24T03:40:17;13.90;99.90
15288;DHT22;7745;48.708;9.026;2023-06-24T03:42:44;13.90;99.90
15288;DHT22;7745;48.708;9.026;2023-06-24T03:45:12;13.90;99.90
15288;DHT22;7745;48.708;9.026;2023-06-24T03:47:39;13.80;99.90
15288;DHT22;7745;48.708;9.026;2023-06-24T03:50:06;14.10;99.90
15288;DHT22;7745;48.708;9.026;2023-06-24T03:52:33;13.80;99.90
15288;DHT22;7745;48.708;9.026;2023-06-24T03:55:00;13.90;99.90
15288;DHT22;7745;48.708;9.026;2023-06-24T03:57:29;13.90;99.90
15288;DHT22;7745;48.708;9.026;2023-06-24T03:59:56;13.90;99.90
15288;DHT22;7745;48.708;9.026;2023-06-24T04:02:24;14.00;99.90
15288;DHT22;7745;48.708;9.026;2023-06-24T04:04:52;13.90;99.90
15288;DHT22;7745;48.708;9.026;2023-06-24T04:07:21;13.90;99.90
15288;DHT22;7745;48.708;9.026;2023-06-24T04:09:54;13.90;99.90
15288;DHT22;7745;48.708;9.026;2023-06-24T04:12:21;14.00;99.90
15288;DHT22;7745;48.708;9.026;2023-06-24T04:14:48;14.10;99.90
15288;DHT22;7745;48.708;9.026;2023-06-24T04:17:15;14.20;99.90
15288;DHT22;7745;48.708;9.026;2023-06-24T04:19:43;14.20;99.90
15288;DHT22;7745;48.708;9.026;2023-06-24T04:22:10;14.30;99.90
15288;DHT22;7745;48.708;9.026;2023-06-24T04:24:37;14.30;99.90
15288;DHT22;7745;48.708;9.026;2023-06-24T04:27:05;14.40;99.90
15288;DHT22;7745;48.708;9.026;2023-06-24T04:29:32;14.50;99.90
15288;DHT22;7745;48.708;9.026;2023-06-24T04:32:00;14.50;99.90
15288;DHT22;7745;48.708;9.026;2023-06-24T04:34:26;14.50;99.90
15288;DHT22;7745;48.708;9.026;2023-06-24T04:36:55;14.50;99.90
15288;DHT22;7745;48.708;9.026;2023-06-24T04:39:21;14.50;99.90
15288;DHT22;7745;48.708;9.026;2023-06-24T04:41:48;14.60;99.90
15288;DHT22;7745;48.708;9.026;2023-06-24T04:44:15;14.70;99.90
15288;DHT22;7745;48.708;9.026;2023-06-24T04:46:42;14.80;99.90
15288;DHT22;7745;48.708;9.026;2023-06-24T04:49:08;14.90;99.90
15288;DHT22;7745;48.708;9.026;2023-06-24T04:51:35;15.20;99.90
15288;DHT22;7745;48.708;9.026;2023-06-24T04:54:04;15.40;99.90
15288;DHT22;7745;48.708;9.026;2023-06-24T04:56:31;15.50;99.90
15288;DHT22;7745;48.708;9.026;2023-06-24T04:58:58;15.70;99.90
15288;DHT22;7745;48.708;9.026;2023-06-24T05:01:25;15.60;99.90
15288;DHT22;7745;48.708;9.026;2023-06-24T05:03:51;15.80;99.90
15288;DHT22;7745;48.708;9.026;2023-06-24T05:06:18;15.80;99.90
15288;DHT22;7745;48.708;9.026;2023-06-24T05:08:45;15.90;99.90
15288;DHT22;7745;48.708;9.026;2023-06-24T05:11:13;16.00;99.90
15288;DHT22;7745;48.708;9.026;2023-06-24T05:13:40;16.20;99.90
15288;DHT22;7745;48.708;9.026;2023-06-24T05:16:07;16.30;99.90
15288;DHT22;7745;48.708;9.026;2023-06-24T05:18:34;16.40;99.90
15288;DHT22;7745;48.708;9.026;2023-06-24T05:21:01;16.60;99.90
15288;DHT22;7745;48.708;9.026;2023-06-24T05:23:28;16.80;99.90
15288;DHT22;7745;48.708;9.026;2023-06-24T05:25:55;16.90;99.90
15288;DHT22;7745;48.708;9.026;2023-06-24T05:28:23;17.00;99.90
15288;DHT22;7745;48.708;9.026;2023-06-24T05:30:50;17.00;99.90
15288;DHT22;7745;48.708;9.026;2023-06-24T05:33:16;17.10;99.90
15288;DHT22;7745;48.708;9.026;2023-06-24T05:35:44;17.30;99.90
15288;DHT22;7745;48.708;9.026;2023-06-24T05:38:10;17.40;99.90
15288;DHT22;7745;48.708;9.026;2023-06-24T05:40:37;17.50;99.90
15288;DHT22;7745;48.708;9.026;2023-06-24T05:43:04;17.80;99.90
15288;DHT22;7745;48.708;9.026;2023-06-24T05:45:32;17.80;99.90
15288;DHT22;7745;48.708;9.026;2023-06-24T05:47:59;18.00;99.90
15288;DHT22;7745;48.708;9.026;2023-06-24T05:50:25;18.00;99.90
15288;DHT22;7745;48.708;9.026;2023-06-24T05:52:52;18.20;99.90
15288;DHT22;7745;48.708;9.026;2023-06-24T05:55:19;18.50;99.90
15288;DHT22;7745;48.708;9.026;2023-06-24T05:57:46;18.40;99.90
15288;DHT22;7745;48.708;9.026;2023-06-24T06:00:13;18.50;99.90
15288;DHT22;7745;48.708;9.026;2023-06-24T06:02:41;18.70;99.90
15288;DHT22;7745;48.708;9.026;2023-06-24T06:05:08;18.70;99.90
15288;DHT22;7745;48.708;9.026;2023-06-24T06:07:35;19.00;99.90
15288;DHT22;7745;48.708;9.026;2023-06-24T06:10:04;19.00;99.90
15288;DHT22;7745;48.708;9.026;2023-06-24T06:12:31;19.00;99.90
15288;DHT22;7745;48.708;9.026;2023-06-24T06:14:58;19.10;99.90
15288;DHT22;7745;48.708;9.026;2023-06-24T06:17:25;19.20;99.90
15288;DHT22;7745;48.708;9.026;2023-06-24T06:19:53;19.40;99.90
15288;DHT22;7745;48.708;9.026;2023-06-24T06:22:20;19.70;99.90
15288;DHT22;7745;48.708;9.026;2023-06-24T06:24:46;19.80;99.90
15288;DHT22;7745;48.708;9.026;2023-06-24T06:27:13;19.90;99.90
15288;DHT22;7745;48.708;9.026;2023-06-24T06:29:40;19.90;99.90
15288;DHT22;7745;48.708;9.026;2023-06-24T06:32:07;19.90;99.90
15288;DHT22;7745;48.708;9.026;2023-06-24T06:34:34;20.00;99.90
15288;DHT22;7745;48.708;9.026;2023-06-24T06:37:04;20.00;99.90
15288;DHT22;7745;48.708;9.026;2023-06-24T06:39:30;20.10;99.90
15288;DHT22;7745;48.708;9.026;2023-06-24T06:41:57;20.30;99.90
15288;DHT22;7745;48.708;9.026;2023-06-24T06:44:24;20.40;99.90
15288;DHT22;7745;48.708;9.026;2023-06-24T06:46:51;20.40;99.90
15288;DHT22;7745;48.708;9.026;2023-06-24T06:49:17;20.40;99.90
15288;DHT22;7745;48.708;9.026;2023-06-24T06:51:44;20.50;99.90
15288;DHT22;7745;48.708;9.026;2023-06-24T06:54:12;20.70;99.90
15288;DHT22;7745;48.708;9.026;2023-06-24T06:56:39;20.90;99.90
15288;DHT22;7745;48.708;9.026;2023-06-24T06:59:06;20.90;99.90
15288;DHT22;7745;48.708;9.026;2023-06-24T07:01:33;21.00;99.90
15288;DHT22;7745;48.708;9.026;2023-06-24T07:03:59;21.10;99.90
15288;DHT22;7745;48.708;9.026;2023-06-24T07:06:26;21.00;99.90
15288;DHT22;7745;48.708;9.026;2023-06-24T07:08:53;21.10;99.90
15288;DHT22;7745;48.708;9.026;2023-06-24T07:11:21;21.10;99.90
15288;DHT22;7745;48.708;9.026;2023-06-24T07:13:48;21.20;99.90
15288;DHT22;7745;48.708;9.026;2023-06-24T07:16:16;21.30;99.90
15288;DHT22;7745;48.708;9.026;2023-06-24T07:18:43;21.50;99.90
15288;DHT22;7745;48.708;9.026;2023-06-24T07:21:10;21.60;99.90
15288;DHT22;7745;48.708;9.026;2023-06-24T07:23:36;21.80;99.90
15288;DHT22;7745;48.708;9.026;2023-06-24T07:26:03;21.80;99.90
15288;DHT22;7745;48.708;9.026;2023-06-24T07:28:31;22.00;99.90
15288;DHT22;7745;48.708;9.026;2023-06-24T07:30:58;21.90;99.90
15288;DHT22;7745;48.708;9.026;2023-06-24T07:33:25;22.10;99.90
15288;DHT22;7745;48.708;9.026;2023-06-24T07:35:52;22.20;99.90
15288;DHT22;7745;48.708;9.026;2023-06-24T07:38:19;22.20;99.90
15288;DHT22;7745;48.708;9.026;2023-06-24T07:40:46;22.30;99.90
15288;DHT22;7745;48.708;9.026;2023-06-24T07:43:12;22.20;99.90
15288;DHT22;7745;48.708;9.026;2023-06-24T07:45:41;22.20;99.90
15288;DHT22;7745;48.708;9.026;2023-06-24T07:48:07;22.30;99.90
15288;DHT22;7745;48.708;9.026;2023-06-24T07:50:34;22.30;99.90
15288;DHT22;7745;48.708;9.026;2023-06-24T07:53:01;22.40;99.90
15288;DHT22;7745;48.708;9.026;2023-06-24T07:55:28;22.50;99.90
15288;DHT22;7745;48.708;9.026;2023-06-24T07:57:55;22.40;99.90
15288;DHT22;7745;48.708;9.026;2023-06-24T08:00:24;22.40;99.90
15288;DHT22;7745;48.708;9.026;2023-06-24T08:02:52;22.60;99.90
15288;DHT22;7745;48.708;9.026;2023-06-24T08:05:20;22.70;99.90
15288;DHT22;7745;48.708;9.026;2023-06-24T08:07:47;22.70;99.90
15288;DHT22;7745;48.708;9.026;2023-06-24T08:10:14;22.80;99.90
15288;DHT22;7745;48.708;9.026;2023-06-24T08:12:41;22.90;99.90
15288;DHT22;7745;48.708;9.026;2023-06-24T08:15:26;23.00;99.90
15288;DHT22;7745;48.708;9.026;2023-06-24T08:18:09;23.00;99.90
15288;DHT22;7745;48.708;9.026;2023-06-24T08:20:36;23.10;99.90
15288;DHT22;7745;48.708;9.026;2023-06-24T08:23:02;23.10;99.90
15288;DHT22;7745;48.708;9.026;2023-06-24T08:25:29;23.10;99.90
15288;DHT22;7745;48.708;9.026;2023-06-24T08:31:18;23.40;99.90
15288;DHT22;7745;48.708;9.026;2023-06-24T08:33:55;23.40;99.90
15288;DHT22;7745;48.708;9.026;2023-06-24T08:36:35;23.30;99.90
15288;DHT22;7745;48.708;9.026;2023-06-24T08:39:03;23.60;99.90
15288;DHT22;7745;48.708;9.026;2023-06-24T08:41:36;23.60;99.90
15288;DHT22;7745;48.708;9.026;2023-06-24T08:50:56;24.00;99.90
15288;DHT22;7745;48.708;9.026;2023-06-24T08:53:26;24.00;99.90
15288;DHT22;7745;48.708;9.026;2023-06-24T08:55:54;23.80;99.90
15288;DHT22;7745;48.708;9.026;2023-06-24T08:58:22;23.90;99.90
15288;DHT22;7745;48.708;9.026;2023-06-24T09:00:49;24.00;99.90
15288;DHT22;7745;48.708;9.026;2023-06-24T09:03:15;23.80;99.90
15288;DHT22;7745;48.708;9.026;2023-06-24T09:05:42;23.80;99.90
15288;DHT22;7745;48.708;9.026;2023-06-24T09:08:11;23.90;99.90
15288;DHT22;7745;48.708;9.026;2023-06-24T09:10:38;24.10;99.90
15288;DHT22;7745;48.708;9.026;2023-06-24T09:13:06;24.40;99.90
15288;DHT22;7745;48.708;9.026;2023-06-24T09:15:33;24.70;99.90
15288;DHT22;7745;48.708;9.026;2023-06-24T09:18:01;24.80;99.90
15288;DHT22;7745;48.708;9.026;2023-06-24T09:20:29;24.70;99.90
15288;DHT22;7745;48.708;9.026;2023-06-24T09:22:58;24.60;99.90
15288;DHT22;7745;48.708;9.026;2023-06-24T09:25:27;24.40;99.90
15288;DHT22;7745;48.708;9.026;2023-06-24T09:27:55;24.50;99.90
15288;DHT22;7745;48.708;9.026;2023-06-24T09:30:25;24.50;99.90
15288;DHT22;7745;48.708;9.026;2023-06-24T09:32:52;24.40;99.90
15288;DHT22;7745;48.708;9.026;2023-06-24T09:35:21;24.30;99.90
15288;DHT22;7745;48.708;9.026;2023-06-24T09:37:51;24.40;99.90
15288;DHT22;7745;48.708;9.026;2023-06-24T09:40:18;24.60;99.90
15288;DHT22;7745;48.708;9.026;2023-06-24T09:42:54;24.60;99.90
15288;DHT22;7745;48.708;9.026;2023-06-24T09:45:23;24.60;99.90
15288;DHT22;7745;48.708;9.026;2023-06-24T09:47:51;24.60;99.90
15288;DHT22;7745;48.708;9.026;2023-06-24T09:50:18;24.40;99.90
15288;DHT22;7745;48.708;9.026;2023-06-24T09:52:45;24.40;99.90
15288;DHT22;7745;48.708;9.026;2023-06-24T09:55:13;24.10;99.90
15288;DHT22;7745;48.708;9.026;2023-06-24T09:57:42;23.80;99.90
15288;DHT22;7745;48.708;9.026;2023-06-24T10:00:14;23.80;99.90
15288;DHT22;7745;48.708;9.026;2023-06-24T10:02:41;23.70;99.90
15288;DHT22;7745;48.708;9.026;2023-06-24T10:05:09;23.80;99.90
15288;DHT22;7745;48.708;9.026;2023-06-24T10:07:36;24.00;99.90
15288;DHT22;7745;48.708;9.026;2023-06-24T10:10:06;24.10;99.90
15288;DHT22;7745;48.708;9.026;2023-06-24T10:12:34;24.20;99.90
15288;DHT22;7745;48.708;9.026;2023-06-24T10:15:01;24.20;99.90
15288;DHT22;7745;48.708;9.026;2023-06-24T10:17:31;24.40;99.90
15288;DHT22;7745;48.708;9.026;2023-06-24T10:19:57;24.70;99.90
15288;DHT22;7745;48.708;9.026;2023-06-24T10:22:24;25.20;99.90
15288;DHT22;7745;48.708;9.026;2023-06-24T10:24:54;25.40;99.90
15288;DHT22;7745;48.708;9.026;2023-06-24T10:27:22;25.40;99.90
15288;DHT22;7745;48.708;9.026;2023-06-24T10:29:50;25.50;99.90
15288;DHT22;7745;48.708;9.026;2023-06-24T10:32:18;25.50;99.90
15288;DHT22;7745;48.708;9.026;2023-06-24T10:34:53;25.40;99.90
15288;DHT22;7745;48.708;9.026;2023-06-24T10:37:22;25.40;99.90
15288;DHT22;7745;48.708;9.026;2023-06-24T10:39:51;25.50;99.90
15288;DHT22;7745;48.708;9.026;2023-06-24T10:42:26;25.80;99.90
15288;DHT22;7745;48.708;9.026;2023-06-24T10:44:55;26.20;99.90
15288;DHT22;7745;48.708;9.026;2023-06-24T10:47:22;26.30;99.90
15288;DHT22;7745;48.708;9.026;2023-06-24T10:49:51;26.40;99.90
15288;DHT22;7745;48.708;9.026;2023-06-24T10:52:19;26.70;99.90
15288;DHT22;7745;48.708;9.026;2023-06-24T10:54:46;26.60;99.90
15288;DHT22;7745;48.708;9.026;2023-06-24T10:57:13;26.60;99.90
15288;DHT22;7745;48.708;9.026;2023-06-24T10:59:42;26.60;99.90
15288;DHT22;7745;48.708;9.026;2023-06-24T11:02:09;26.30;99.90
15288;DHT22;7745;48.708;9.026;2023-06-24T11:04:43;26.40;99.90
15288;DHT22;7745;48.708;9.026;2023-06-24T11:07:11;26.40;99.90
15288;DHT22;7745;48.708;9.026;2023-06-24T11:09:38;26.70;99.90
15288;DHT22;7745;48.708;9.026;2023-06-24T11:12:06;26.80;99.90
15288;DHT22;7745;48.708;9.026;2023-06-24T11:14:35;26.40;99.90
15288;DHT22;7745;48.708;9.026;2023-06-24T11:17:02;26.20;99.90
15288;DHT22;7745;48.708;9.026;2023-06-24T11:19:29;26.10;99.90
15288;DHT22;7745;48.708;9.026;2023-06-24T11:21:59;25.90;99.90
15288;DHT22;7745;48.708;9.026;2023-06-24T11:24:28;25.60;99.90
15288;DHT22;7745;48.708;9.026;2023-06-24T11:26:55;25.50;99.90
15288;DHT22;7745;48.708;9.026;2023-06-24T11:29:21;25.50;99.90
15288;DHT22;7745;48.708;9.026;2023-06-24T11:31:48;25.40;99.90
15288;DHT22;7745;48.708;9.026;2023-06-24T11:34:15;25.40;99.90
15288;DHT22;7745;48.708;9.026;2023-06-24T11:36:42;25.40;99.90
15288;DHT22;7745;48.708;9.026;2023-06-24T11:39:20;25.30;99.90
15288;DHT22;7745;48.708;9.026;2023-06-24T11:41:49;25.60;99.90
15288;DHT22;7745;48.708;9.026;2023-06-24T11:44:17;25.80;99.90
15288;DHT22;7745;48.708;9.026;2023-06-24T11:46:44;26.20;99.90
15288;DHT22;7745;48.708;9.026;2023-06-24T11:49:11;26.10;99.90
15288;DHT22;7745;48.708;9.026;2023-06-24T11:51:47;25.80;99.90
15288;DHT22;7745;48.708;9.026;2023-06-24T11:54:15;26.10;99.90
15288;DHT22;7745;48.708;9.026;2023-06-24T11:56:43;26.00;99.90
15288;DHT22;7745;48.708;9.026;2023-06-24T11:59:18;25.80;99.90
15288;DHT22;7745;48.708;9.026;2023-06-24T12:01:52;25.60;99.90
15288;DHT22;7745;48.708;9.026;2023-06-24T12:04:19;25.40;99.90
15288;DHT22;7745;48.708;9.026;2023-06-24T12:06:46;25.20;99.90
15288;DHT22;7745;48.708;9.026;2023-06-24T12:09:13;25.20;99.90
15288;DHT22;7745;48.708;9.026;2023-06-24T12:11:40;25.30;99.90
15288;DHT22;7745;48.708;9.026;2023-06-24T12:14:06;25.50;99.90
15288;DHT22;7745;48.708;9.026;2023-06-24T12:16:35;25.60;99.90
15288;DHT22;7745;48.708;9.026;2023-06-24T12:19:02;25.60;99.90
15288;DHT22;7745;48.708;9.026;2023-06-24T12:21:29;25.80;99.90
15288;DHT22;7745;48.708;9.026;2023-06-24T12:23:56;25.60;99.90
15288;DHT22;7745;48.708;9.026;2023-06-24T12:26:23;25.60;99.90
15288;DHT22;7745;48.708;9.026;2023-06-24T12:28:49;25.50;99.90
15288;DHT22;7745;48.708;9.026;2023-06-24T12:31:16;25.70;99.90
15288;DHT22;7745;48.708;9.026;2023-06-24T12:33:44;25.80;99.90
15288;DHT22;7745;48.708;9.026;2023-06-24T12:36:11;25.80;99.90
15288;DHT22;7745;48.708;9.026;2023-06-24T12:38:38;26.00;99.90
15288;DHT22;7745;48.708;9.026;2023-06-24T12:41:05;26.10;99.90
15288;DHT22;7745;48.708;9.026;2023-06-24T12:43:32;26.30;99.90
15288;DHT22;7745;48.708;9.026;2023-06-24T12:45:59;26.50;99.90
15288;DHT22;7745;48.708;9.026;2023-06-24T12:48:26;26.70;99.90
15288;DHT22;7745;48.708;9.026;2023-06-24T12:50:54;26.70;99.90
15288;DHT22;7745;48.708;9.026;2023-06-24T12:53:21;26.40;99.90
15288;DHT22;7745;48.708;9.026;2023-06-24T12:55:48;26.50;99.90
15288;DHT22;7745;48.708;9.026;2023-06-24T12:58:19;26.80;99.90
15288;DHT22;7745;48.708;9.026;2023-06-24T13:00:45;26.60;99.90
15288;DHT22;7745;48.708;9.026;2023-06-24T13:03:12;26.80;99.90
15288;DHT22;7745;48.708;9.026;2023-06-24T13:05:39;26.90;99.90
15288;DHT22;7745;48.708;9.026;2023-06-24T13:08:07;27.10;99.90
15288;DHT22;7745;48.708;9.026;2023-06-24T13:10:36;27.10;99.90
15288;DHT22;7745;48.708;9.026;2023-06-24T13:13:03;26.90;99.90
15288;DHT22;7745;48.708;9.026;2023-06-24T13:15:30;26.80;99.90
15288;DHT22;7745;48.708;9.026;2023-06-24T13:17:57;26.50;99.90
15288;DHT22;7745;48.708;9.026;2023-06-24T13:20:24;26.40;99.90
15288;DHT22;7745;48.708;9.026;2023-06-24T13:22:51;26.20;99.90
15288;DHT22;7745;48.708;9.026;2023-06-24T13:25:19;26.00;99.90
15288;DHT22;7745;48.708;9.026;2023-06-24T13:27:46;25.80;99.90
15288;DHT22;7745;48.708;9.026;2023-06-24T13:30:13;25.70;99.90
15288;DHT22;7745;48.708;9.026;2023-06-24T13:32:41;25.80;99.90
15288;DHT22;7745;48.708;9.026;2023-06-24T13:35:09;26.20;99.90
15288;DHT22;7745;48.708;9.026;2023-06-24T13:37:36;26.50;99.90
15288;DHT22;7745;48.708;9.026;2023-06-24T13:40:05;26.70;99.90
15288;DHT22;7745;48.708;9.026;2023-06-24T13:42:33;26.80;99.90
15288;DHT22;7745;48.708;9.026;2023-06-24T13:45:00;26.60;99.90
15288;DHT22;7745;48.708;9.026;2023-06-24T13:47:27;26.60;99.90
15288;DHT22;7745;48.708;9.026;2023-06-24T13:49:54;26.70;99.90
15288;DHT22;7745;48.708;9.026;2023-06-24T13:52:21;26.90;99.90
15288;DHT22;7745;48.708;9.026;2023-06-24T13:54:47;26.70;99.90
15288;DHT22;7745;48.708;9.026;2023-06-24T13:57:15;26.50;99.90
15288;DHT22;7745;48.708;9.026;2023-06-24T13:59:43;26.20;99.90
15288;DHT22;7745;48.708;9.026;2023-06-24T14:02:10;26.10;99.90
15288;DHT22;7745;48.708;9.026;2023-06-24T14:04:37;26.20;99.90
15288;DHT22;7745;48.708;9.026;2023-06-24T14:07:05;26.30;99.90
15288;DHT22;7745;48.708;9.026;2023-06-24T14:09:32;26.10;99.90
15288;DHT22;7745;48.708;9.026;2023-06-24T14:11:59;26.10;99.90
15288;DHT22;7745;48.708;9.026;2023-06-24T14:14:26;26.30;99.90
15288;DHT22;7745;48.708;9.026;2023-06-24T14:16:54;26.20;99.90
15288;DHT22;7745;48.708;9.026;2023-06-24T14:19:21;26.20;99.90
15288;DHT22;7745;48.708;9.026;2023-06-24T14:21:48;26.40;99.90
15288;DHT22;7745;48.708;9.026;2023-06-24T14:24:15;26.60;99.90
15288;DHT22;7745;48.708;9.026;2023-06-24T14:26:42;26.60;99.90
15288;DHT22;7745;48.708;9.026;2023-06-24T14:29:09;26.70;99.90
15288;DHT22;7745;48.708;9.026;2023-06-24T14:31:36;26.90;99.90
15288;DHT22;7745;48.708;9.026;2023-06-24T14:34:04;27.00;99.90
15288;DHT22;7745;48.708;9.026;2023-06-24T14:36:30;27.10;99.90
15288;DHT22;7745;48.708;9.026;2023-06-24T14:38:57;27.10;99.90
15288;DHT22;7745;48.708;9.026;2023-06-24T14:41:24;27.20;99.90
15288;DHT22;7745;48.708;9.026;2023-06-24T14:43:51;27.20;99.90
15288;DHT22;7745;48.708;9.026;2023-06-24T14:46:18;27.50;99.90
15288;DHT22;7745;48.708;9.026;2023-06-24T14:48:45;27.40;99.90
15288;DHT22;7745;48.708;9.026;2023-06-24T14:51:13;27.30;99.90
15288;DHT22;7745;48.708;9.026;2023-06-24T14:53:39;27.00;99.90
15288;DHT22;7745;48.708;9.026;2023-06-24T14:56:06;26.70;99.90
15288;DHT22;7745;48.708;9.026;2023-06-24T14:58:34;26.60;99.90
15288;DHT22;7745;48.708;9.026;2023-06-24T15:01:00;26.40;99.90
15288;DHT22;7745;48.708;9.026;2023-06-24T15:03:27;26.40;99.90
15288;DHT22;7745;48.708;9.026;2023-06-24T15:05:56;26.40;99.90
15288;DHT22;7745;48.708;9.026;2023-06-24T15:08:24;26.50;99.90
15288;DHT22;7745;48.708;9.026;2023-06-24T15:10:52;26.60;99.90
15288;DHT22;7745;48.708;9.026;2023-06-24T15:13:18;26.80;99.90
15288;DHT22;7745;48.708;9.026;2023-06-24T15:15:45;26.60;99.90
15288;DHT22;7745;48.708;9.026;2023-06-24T15:18:12;26.50;99.90
15288;DHT22;7745;48.708;9.026;2023-06-24T15:20:40;26.50;99.90
15288;DHT22;7745;48.708;9.026;2023-06-24T15:23:07;26.50;99.90
15288;DHT22;7745;48.708;9.026;2023-06-24T15:25:35;26.50;99.90
15288;DHT22;7745;48.708;9.026;2023-06-24T15:28:02;26.40;99.90
15288;DHT22;7745;48.708;9.026;2023-06-24T15:30:28;26.70;99.90
15288;DHT22;7745;48.708;9.026;2023-06-24T15:32:55;26.80;99.90
15288;DHT22;7745;48.708;9.026;2023-06-24T15:35:22;26.70;99.90
15288;DHT22;7745;48.708;9.026;2023-06-24T15:37:49;27.00;99.90
15288;DHT22;7745;48.708;9.026;2023-06-24T15:40:16;26.90;99.90
15288;DHT22;7745;48.708;9.026;2023-06-24T15:42:44;26.90;99.90
15288;DHT22;7745;48.708;9.026;2023-06-24T15:45:10;26.80;99.90
15288;DHT22;7745;48.708;9.026;2023-06-24T15:47:37;26.70;99.90
15288;DHT22;7745;48.708;9.026;2023-06-24T15:50:04;26.60;99.90
15288;DHT22;7745;48.708;9.026;2023-06-24T15:52:31;26.60;99.90
15288;DHT22;7745;48.708;9.026;2023-06-24T15:54:58;26.70;99.90
15288;DHT22;7745;48.708;9.026;2023-06-24T15:57:25;26.80;99.90
15288;DHT22;7745;48.708;9.026;2023-06-24T15:59:53;26.80;99.90
15288;DHT22;7745;48.708;9.026;2023-06-24T16:02:20;26.70;99.90